sensor_id;sensor_type;location;lat;lon;timestamp;pressure;altitude;pressure_sealevel;temperature;humidity
33151;BME280;19508;42.578;23.416;2023-04-15T00:00:49;92920.53;;;6.11;65.24
33151;BME280;19508;42.578;23.416;2023-04-15T00:03:16;92927.50;;;6.12;65.25
33151;BME280;19508;42.578;23.416;2023-04-15T00:05:41;92930.00;;;6.18;65.11
33151;BME280;19508;42.578;23.416;2023-04-15T00:08:07;92922.22;;;6.17;65.20
33151;BME280;19508;42.578;23.416;2023-04-15T00:10:32;92924.75;;;6.07;65.67
33151;BME280;19508;42.578;23.416;2023-04-15T00:12:58;92918.72;;;5.94;66.44
33151;BME280;19508;42.578;23.416;2023-04-15T00:15:23;92932.88;;;5.95;66.27
33151;BME280;19508;42.578;23.416;2023-04-15T00:17:49;92933.50;;;6.02;67.28
33151;BME280;19508;42.578;23.416;2023-04-15T00:20:16;92931.09;;;6.01;66.96
33151;BME280;19508;42.578;23.416;2023-04-15T00:22:41;92930.59;;;6.04;66.51
33151;BME280;19508;42.578;23.416;2023-04-15T00:25:07;92928.97;;;6.03;66.67
33151;BME280;19508;42.578;23.416;2023-04-15T00:27:33;92932.69;;;6.02;66.96
33151;BME280;19508;42.578;23.416;2023-04-15T00:29:59;92925.75;;;6.01;66.69
33151;BME280;19508;42.578;23.416;2023-04-15T00:32:24;92932.31;;;5.93;67.08
33151;BME280;19508;42.578;23.416;2023-04-15T00:34:49;92929.91;;;5.91;67.14
33151;BME280;19508;42.578;23.416;2023-04-15T00:37:15;92933.22;;;5.99;67.05
33151;BME280;19508;42.578;23.416;2023-04-15T00:39:41;92935.50;;;5.73;68.21
33151;BME280;19508;42.578;23.416;2023-04-15T00:42:06;92939.34;;;5.82;68.50
33151;BME280;19508;42.578;23.416;2023-04-15T00:44:32;92959.28;;;5.91;68.51
33151;BME280;19508;42.578;23.416;2023-04-15T00:46:59;92961.69;;;6.10;68.04
33151;BME280;19508;42.578;23.416;2023-04-15T00:49:25;92954.19;;;5.73;70.03
33151;BME280;19508;42.578;23.416;2023-04-15T00:51:51;92958.00;;;5.60;70.98
33151;BME280;19508;42.578;23.416;2023-04-15T00:54:16;92967.59;;;5.78;72.67
33151;BME280;19508;42.578;23.416;2023-04-15T00:56:42;92953.81;;;5.86;72.32
33151;BME280;19508;42.578;23.416;2023-04-15T00:59:08;92950.13;;;5.54;75.09
33151;BME280;19508;42.578;23.416;2023-04-15T01:01:34;92961.81;;;5.64;75.51
33151;BME280;19508;42.578;23.416;2023-04-15T01:04:01;92966.47;;;5.74;75.49
33151;BME280;19508;42.578;23.416;2023-04-15T01:06:27;92975.16;;;5.81;75.62
33151;BME280;19508;42.578;23.416;2023-04-15T01:08:54;92978.63;;;5.82;75.27
33151;BME280;19508;42.578;23.416;2023-04-15T01:11:20;92967.56;;;5.56;77.56
33151;BME280;19508;42.578;23.416;2023-04-15T01:13:46;92964.69;;;5.63;77.95
33151;BME280;19508;42.578;23.416;2023-04-15T01:16:13;92958.94;;;5.71;77.18
33151;BME280;19508;42.578;23.416;2023-04-15T01:18:38;92958.31;;;5.64;77.20
33151;BME280;19508;42.578;23.416;2023-04-15T01:21:05;92963.81;;;5.24;76.36
33151;BME280;19508;42.578;23.416;2023-04-15T01:23:31;92961.66;;;4.92;76.27
33151;BME280;19508;42.578;23.416;2023-04-15T01:25:58;92944.69;;;4.98;75.87
33151;BME280;19508;42.578;23.416;2023-04-15T01:28:24;92968.66;;;4.81;77.35
33151;BME280;19508;42.578;23.416;2023-04-15T01:30:50;92951.22;;;4.91;76.91
33151;BME280;19508;42.578;23.416;2023-04-15T01:33:29;92964.72;;;4.84;76.70
33151;BME280;19508;42.578;23.416;2023-04-15T01:35:55;92959.41;;;5.01;76.99
33151;BME280;19508;42.578;23.416;2023-04-15T01:38:21;92963.22;;;5.05;76.69
33151;BME280;19508;42.578;23.416;2023-04-15T01:40:46;92959.75;;;5.04;76.38
33151;BME280;19508;42.578;23.416;2023-04-15T01:43:12;92961.84;;;5.19;75.81
33151;BME280;19508;42.578;23.416;2023-04-15T01:45:37;92969.16;;;5.24;75.86
33151;BME280;19508;42.578;23.416;2023-04-15T01:48:03;92968.34;;;5.23;76.31
33151;BME280;19508;42.578;23.416;2023-04-15T01:50:28;92976.28;;;5.35;75.92
33151;BME280;19508;42.578;23.416;2023-04-15T01:52:53;92965.50;;;5.47;75.51
33151;BME280;19508;42.578;23.416;2023-04-15T01:55:19;92958.38;;;5.35;75.47
33151;BME280;19508;42.578;23.416;2023-04-15T01:57:44;92961.22;;;5.46;75.28
33151;BME280;19508;42.578;23.416;2023-04-15T02:00:10;92949.25;;;5.48;75.08
33151;BME280;19508;42.578;23.416;2023-04-15T02:02:36;92950.13;;;5.54;74.70
33151;BME280;19508;42.578;23.416;2023-04-15T02:05:02;92962.22;;;5.40;75.08
33151;BME280;19508;42.578;23.416;2023-04-15T02:07:29;92972.88;;;5.40;75.03
33151;BME280;19508;42.578;23.416;2023-04-15T02:09:56;92961.63;;;5.37;75.23
33151;BME280;19508;42.578;23.416;2023-04-15T02:12:22;92958.00;;;5.44;75.55
33151;BME280;19508;42.578;23.416;2023-04-15T02:14:47;92949.91;;;5.38;75.85
33151;BME280;19508;42.578;23.416;2023-04-15T02:17:12;92952.59;;;5.38;75.98
33151;BME280;19508;42.578;23.416;2023-04-15T02:19:38;92952.00;;;5.36;77.28
33151;BME280;19508;42.578;23.416;2023-04-15T02:22:04;92947.31;;;5.44;77.07
33151;BME280;19508;42.578;23.416;2023-04-15T02:24:31;92948.63;;;5.41;76.90
33151;BME280;19508;42.578;23.416;2023-04-15T02:26:57;92938.59;;;5.31;78.00
33151;BME280;19508;42.578;23.416;2023-04-15T02:29:22;92942.06;;;5.15;78.38
33151;BME280;19508;42.578;23.416;2023-04-15T02:31:48;92927.16;;;5.19;78.32
33151;BME280;19508;42.578;23.416;2023-04-15T02:34:13;92932.03;;;5.22;78.41
33151;BME280;19508;42.578;23.416;2023-04-15T02:36:38;92941.91;;;5.22;78.12
33151;BME280;19508;42.578;23.416;2023-04-15T02:39:04;92932.25;;;5.21;78.06
33151;BME280;19508;42.578;23.416;2023-04-15T02:41:30;92928.16;;;5.13;78.03
33151;BME280;19508;42.578;23.416;2023-04-15T02:43:55;92929.97;;;5.13;77.83
33151;BME280;19508;42.578;23.416;2023-04-15T02:46:21;92935.00;;;5.09;77.78
33151;BME280;19508;42.578;23.416;2023-04-15T02:48:47;92936.19;;;5.01;78.76
33151;BME280;19508;42.578;23.416;2023-04-15T02:51:18;92933.94;;;5.10;79.08
33151;BME280;19508;42.578;23.416;2023-04-15T02:53:44;92941.63;;;5.06;78.92
33151;BME280;19508;42.578;23.416;2023-04-15T02:56:10;92934.34;;;5.02;79.22
33151;BME280;19508;42.578;23.416;2023-04-15T02:58:37;92931.22;;;5.05;79.12
33151;BME280;19508;42.578;23.416;2023-04-15T03:01:02;92928.75;;;5.03;79.06
33151;BME280;19508;42.578;23.416;2023-04-15T03:03:27;92930.38;;;4.88;79.47
33151;BME280;19508;42.578;23.416;2023-04-15T03:05:53;92934.72;;;4.94;79.89
33151;BME280;19508;42.578;23.416;2023-04-15T03:08:18;92933.34;;;4.74;79.81
33151;BME280;19508;42.578;23.416;2023-04-15T03:10:45;92916.84;;;4.77;79.27
33151;BME280;19508;42.578;23.416;2023-04-15T03:13:12;92935.94;;;4.86;79.53
33151;BME280;19508;42.578;23.416;2023-04-15T03:15:37;92934.94;;;4.75;79.53
33151;BME280;19508;42.578;23.416;2023-04-15T03:18:03;92924.00;;;4.60;79.60
33151;BME280;19508;42.578;23.416;2023-04-15T03:20:28;92923.53;;;4.63;79.98
33151;BME280;19508;42.578;23.416;2023-04-15T03:22:53;92937.25;;;4.55;81.21
33151;BME280;19508;42.578;23.416;2023-04-15T03:25:19;92950.59;;;4.55;81.34
33151;BME280;19508;42.578;23.416;2023-04-15T03:27:44;92957.66;;;4.49;82.43
33151;BME280;19508;42.578;23.416;2023-04-15T03:30:10;92972.91;;;4.25;84.07
33151;BME280;19508;42.578;23.416;2023-04-15T03:32:36;92986.34;;;4.31;83.71
33151;BME280;19508;42.578;23.416;2023-04-15T03:35:02;92980.84;;;4.49;82.32
33151;BME280;19508;42.578;23.416;2023-04-15T03:37:27;92979.19;;;4.60;81.46
33151;BME280;19508;42.578;23.416;2023-04-15T03:39:53;92994.38;;;4.59;80.42
33151;BME280;19508;42.578;23.416;2023-04-15T03:42:18;92999.56;;;4.66;79.88
33151;BME280;19508;42.578;23.416;2023-04-15T03:44:43;93000.06;;;4.51;79.60
33151;BME280;19508;42.578;23.416;2023-04-15T03:47:09;92997.88;;;4.48;79.40
33151;BME280;19508;42.578;23.416;2023-04-15T03:49:37;93006.66;;;4.60;79.99
33151;BME280;19508;42.578;23.416;2023-04-15T03:52:02;93014.13;;;4.35;80.32
33151;BME280;19508;42.578;23.416;2023-04-15T03:54:28;93017.97;;;4.27;80.47
33151;BME280;19508;42.578;23.416;2023-04-15T03:56:54;93025.22;;;4.43;80.65
33151;BME280;19508;42.578;23.416;2023-04-15T03:59:20;93018.72;;;4.51;80.22
33151;BME280;19508;42.578;23.416;2023-04-15T04:01:45;93014.38;;;4.45;79.93
33151;BME280;19508;42.578;23.416;2023-04-15T04:04:10;93004.50;;;4.34;81.88
33151;BME280;19508;42.578;23.416;2023-04-15T04:06:36;93005.41;;;4.51;81.54
33151;BME280;19508;42.578;23.416;2023-04-15T04:09:01;93004.84;;;4.49;81.93
33151;BME280;19508;42.578;23.416;2023-04-15T04:11:27;93018.25;;;4.66;82.51
33151;BME280;19508;42.578;23.416;2023-04-15T04:13:52;93006.72;;;4.77;82.41
33151;BME280;19508;42.578;23.416;2023-04-15T04:16:18;93015.69;;;4.71;81.45
33151;BME280;19508;42.578;23.416;2023-04-15T04:18:43;93023.91;;;4.69;81.04
33151;BME280;19508;42.578;23.416;2023-04-15T04:21:09;93021.22;;;4.69;80.22
33151;BME280;19508;42.578;23.416;2023-04-15T04:23:35;93017.44;;;4.65;80.29
33151;BME280;19508;42.578;23.416;2023-04-15T04:26:00;93027.53;;;4.63;80.95
33151;BME280;19508;42.578;23.416;2023-04-15T04:28:26;93023.50;;;4.49;81.61
33151;BME280;19508;42.578;23.416;2023-04-15T04:30:51;93027.41;;;4.58;80.68
33151;BME280;19508;42.578;23.416;2023-04-15T04:33:17;93026.75;;;4.39;80.66
33151;BME280;19508;42.578;23.416;2023-04-15T04:35:42;93031.38;;;4.56;80.84
33151;BME280;19508;42.578;23.416;2023-04-15T04:38:07;93026.47;;;4.93;82.43
33151;BME280;19508;42.578;23.416;2023-04-15T04:40:33;93010.06;;;5.29;83.00
33151;BME280;19508;42.578;23.416;2023-04-15T04:42:59;93023.38;;;5.58;81.41
33151;BME280;19508;42.578;23.416;2023-04-15T04:45:24;93013.38;;;5.99;81.23
33151;BME280;19508;42.578;23.416;2023-04-15T04:47:49;93018.28;;;6.45;81.23
33151;BME280;19508;42.578;23.416;2023-04-15T04:50:15;93013.19;;;6.66;77.42
33151;BME280;19508;42.578;23.416;2023-04-15T04:52:41;93021.22;;;7.10;76.87
33151;BME280;19508;42.578;23.416;2023-04-15T04:55:06;93013.66;;;7.60;77.86
33151;BME280;19508;42.578;23.416;2023-04-15T04:57:32;93016.72;;;8.06;77.37
33151;BME280;19508;42.578;23.416;2023-04-15T05:00:00;93027.72;;;8.42;73.95
33151;BME280;19508;42.578;23.416;2023-04-15T05:02:26;93031.13;;;8.80;71.22
33151;BME280;19508;42.578;23.416;2023-04-15T05:04:51;93030.25;;;9.31;69.92
33151;BME280;19508;42.578;23.416;2023-04-15T05:07:19;93030.31;;;9.82;66.54
33151;BME280;19508;42.578;23.416;2023-04-15T05:09:45;93035.75;;;10.28;64.94
33151;BME280;19508;42.578;23.416;2023-04-15T05:12:11;93033.25;;;10.67;63.17
33151;BME280;19508;42.578;23.416;2023-04-15T05:14:40;93042.91;;;10.84;61.00
33151;BME280;19508;42.578;23.416;2023-04-15T05:17:06;93054.56;;;10.13;60.68
33151;BME280;19508;42.578;23.416;2023-04-15T05:19:32;93050.53;;;10.00;61.75
33151;BME280;19508;42.578;23.416;2023-04-15T05:21:58;93057.78;;;9.95;60.71
33151;BME280;19508;42.578;23.416;2023-04-15T05:24:23;93054.03;;;10.01;61.15
33151;BME280;19508;42.578;23.416;2023-04-15T05:26:48;93065.88;;;10.30;60.33
33151;BME280;19508;42.578;23.416;2023-04-15T05:29:14;93063.44;;;10.18;59.88
33151;BME280;19508;42.578;23.416;2023-04-15T05:31:40;93068.03;;;10.38;60.01
33151;BME280;19508;42.578;23.416;2023-04-15T05:34:06;93057.22;;;10.74;59.70
33151;BME280;19508;42.578;23.416;2023-04-15T05:36:31;93065.75;;;11.01;59.73
33151;BME280;19508;42.578;23.416;2023-04-15T05:38:57;93068.28;;;11.47;58.54
33151;BME280;19508;42.578;23.416;2023-04-15T05:41:22;93058.28;;;12.02;57.50
33151;BME280;19508;42.578;23.416;2023-04-15T05:43:47;93053.28;;;12.25;52.98
33151;BME280;19508;42.578;23.416;2023-04-15T05:46:13;93053.13;;;12.74;52.28
33151;BME280;19508;42.578;23.416;2023-04-15T05:48:38;93050.75;;;13.15;52.54
33151;BME280;19508;42.578;23.416;2023-04-15T05:51:04;93058.38;;;13.61;51.18
33151;BME280;19508;42.578;23.416;2023-04-15T05:53:29;93055.03;;;14.07;49.61
33151;BME280;19508;42.578;23.416;2023-04-15T05:55:56;93055.25;;;14.10;47.51
33151;BME280;19508;42.578;23.416;2023-04-15T05:58:21;93058.13;;;14.52;48.01
33151;BME280;19508;42.578;23.416;2023-04-15T06:00:46;93063.34;;;14.81;46.89
33151;BME280;19508;42.578;23.416;2023-04-15T06:03:12;93064.91;;;15.28;45.86
33151;BME280;19508;42.578;23.416;2023-04-15T06:05:37;93066.72;;;15.46;44.34
33151;BME280;19508;42.578;23.416;2023-04-15T06:08:03;93067.03;;;15.45;44.40
33151;BME280;19508;42.578;23.416;2023-04-15T06:10:28;93062.63;;;15.63;43.44
33151;BME280;19508;42.578;23.416;2023-04-15T06:12:55;93056.50;;;15.71;43.80
33151;BME280;19508;42.578;23.416;2023-04-15T06:15:20;93057.72;;;15.65;43.13
33151;BME280;19508;42.578;23.416;2023-04-15T06:17:45;93059.31;;;15.79;42.27
33151;BME280;19508;42.578;23.416;2023-04-15T06:20:11;93059.09;;;15.21;45.14
33151;BME280;19508;42.578;23.416;2023-04-15T06:22:37;93074.19;;;15.41;44.15
33151;BME280;19508;42.578;23.416;2023-04-15T06:25:06;93063.72;;;15.89;44.10
33151;BME280;19508;42.578;23.416;2023-04-15T06:27:32;93069.25;;;15.70;46.84
33151;BME280;19508;42.578;23.416;2023-04-15T06:29:58;93062.22;;;15.83;44.40
33151;BME280;19508;42.578;23.416;2023-04-15T06:32:23;93063.72;;;15.89;43.68
33151;BME280;19508;42.578;23.416;2023-04-15T06:34:49;93060.50;;;16.23;44.15
33151;BME280;19508;42.578;23.416;2023-04-15T06:37:14;93061.25;;;16.74;41.14
33151;BME280;19508;42.578;23.416;2023-04-15T06:39:41;93084.84;;;15.92;43.51
33151;BME280;19508;42.578;23.416;2023-04-15T06:42:07;93078.44;;;15.74;43.74
33151;BME280;19508;42.578;23.416;2023-04-15T06:44:33;93084.94;;;16.23;43.49
33151;BME280;19508;42.578;23.416;2023-04-15T06:46:58;93090.09;;;16.25;42.80
33151;BME280;19508;42.578;23.416;2023-04-15T06:49:24;93091.47;;;16.36;42.34
33151;BME280;19508;42.578;23.416;2023-04-15T06:51:49;93100.59;;;16.40;41.94
33151;BME280;19508;42.578;23.416;2023-04-15T06:54:15;93092.00;;;16.83;40.95
33151;BME280;19508;42.578;23.416;2023-04-15T06:56:41;93102.78;;;16.52;41.68
33151;BME280;19508;42.578;23.416;2023-04-15T06:59:07;93107.13;;;16.17;42.28
33151;BME280;19508;42.578;23.416;2023-04-15T07:01:33;93107.78;;;15.72;42.35
33151;BME280;19508;42.578;23.416;2023-04-15T07:03:58;93092.03;;;16.47;41.90
33151;BME280;19508;42.578;23.416;2023-04-15T07:06:23;93084.31;;;16.40;42.33
33151;BME280;19508;42.578;23.416;2023-04-15T07:08:50;93103.47;;;17.25;41.31
33151;BME280;19508;42.578;23.416;2023-04-15T07:11:15;93105.88;;;17.57;40.09
33151;BME280;19508;42.578;23.416;2023-04-15T07:13:41;93104.81;;;17.05;39.80
33151;BME280;19508;42.578;23.416;2023-04-15T07:16:07;93102.34;;;17.26;40.57
33151;BME280;19508;42.578;23.416;2023-04-15T07:18:33;93096.00;;;18.18;39.34
33151;BME280;19508;42.578;23.416;2023-04-15T07:20:58;93105.31;;;18.43;38.78
33151;BME280;19508;42.578;23.416;2023-04-15T07:23:24;93100.69;;;18.96;36.96
33151;BME280;19508;42.578;23.416;2023-04-15T07:25:49;93095.31;;;19.42;36.62
33151;BME280;19508;42.578;23.416;2023-04-15T07:28:16;93092.84;;;19.03;37.99
33151;BME280;19508;42.578;23.416;2023-04-15T07:30:41;93087.41;;;18.85;37.27
33151;BME280;19508;42.578;23.416;2023-04-15T07:33:07;93089.81;;;18.78;37.82
33151;BME280;19508;42.578;23.416;2023-04-15T07:35:32;93096.72;;;18.67;37.97
33151;BME280;19508;42.578;23.416;2023-04-15T07:37:58;93105.34;;;18.86;38.23
33151;BME280;19508;42.578;23.416;2023-04-15T07:40:23;93102.59;;;18.52;38.16
33151;BME280;19508;42.578;23.416;2023-04-15T07:42:48;93098.75;;;18.53;38.24
33151;BME280;19508;42.578;23.416;2023-04-15T07:45:14;93098.41;;;19.32;35.96
33151;BME280;19508;42.578;23.416;2023-04-15T07:47:40;93105.13;;;19.90;35.33
33151;BME280;19508;42.578;23.416;2023-04-15T07:50:07;93102.72;;;19.42;35.97
33151;BME280;19508;42.578;23.416;2023-04-15T07:52:34;93112.22;;;19.91;35.75
33151;BME280;19508;42.578;23.416;2023-04-15T07:55:05;93116.06;;;19.26;36.27
33151;BME280;19508;42.578;23.416;2023-04-15T07:57:33;93108.81;;;19.30;36.56
33151;BME280;19508;42.578;23.416;2023-04-15T07:59:59;93111.59;;;19.13;37.77
33151;BME280;19508;42.578;23.416;2023-04-15T08:02:24;93123.66;;;18.86;37.34
33151;BME280;19508;42.578;23.416;2023-04-15T08:04:50;93120.88;;;18.51;37.08
33151;BME280;19508;42.578;23.416;2023-04-15T08:07:19;93119.91;;;19.34;36.68
33151;BME280;19508;42.578;23.416;2023-04-15T08:09:45;93117.75;;;20.04;34.96
33151;BME280;19508;42.578;23.416;2023-04-15T08:12:11;93114.06;;;20.59;35.33
33151;BME280;19508;42.578;23.416;2023-04-15T08:14:38;93123.56;;;20.32;33.46
33151;BME280;19508;42.578;23.416;2023-04-15T08:17:04;93113.75;;;20.60;33.11
33151;BME280;19508;42.578;23.416;2023-04-15T08:19:30;93116.97;;;21.04;32.96
33151;BME280;19508;42.578;23.416;2023-04-15T08:21:55;93116.22;;;20.74;34.87
33151;BME280;19508;42.578;23.416;2023-04-15T08:24:21;93118.69;;;20.67;34.52
33151;BME280;19508;42.578;23.416;2023-04-15T08:26:47;93120.84;;;21.03;32.87
33151;BME280;19508;42.578;23.416;2023-04-15T08:29:13;93120.66;;;19.60;33.84
33151;BME280;19508;42.578;23.416;2023-04-15T08:31:38;93115.41;;;20.23;30.96
33151;BME280;19508;42.578;23.416;2023-04-15T08:34:04;93106.31;;;21.56;30.87
33151;BME280;19508;42.578;23.416;2023-04-15T08:36:29;93106.25;;;21.32;31.64
33151;BME280;19508;42.578;23.416;2023-04-15T08:38:56;93123.06;;;21.22;32.14
33151;BME280;19508;42.578;23.416;2023-04-15T08:41:23;93106.38;;;21.15;33.49
33151;BME280;19508;42.578;23.416;2023-04-15T08:43:57;93116.09;;;20.91;33.94
33151;BME280;19508;42.578;23.416;2023-04-15T08:46:23;93102.19;;;21.50;30.63
33151;BME280;19508;42.578;23.416;2023-04-15T08:48:49;93111.91;;;21.60;31.79
33151;BME280;19508;42.578;23.416;2023-04-15T08:51:16;93103.19;;;22.03;31.43
33151;BME280;19508;42.578;23.416;2023-04-15T08:53:45;93087.97;;;21.69;32.12
33151;BME280;19508;42.578;23.416;2023-04-15T08:56:12;93097.69;;;21.33;32.31
33151;BME280;19508;42.578;23.416;2023-04-15T08:58:38;93081.84;;;22.09;30.14
33151;BME280;19508;42.578;23.416;2023-04-15T09:01:04;93092.69;;;22.30;29.50
33151;BME280;19508;42.578;23.416;2023-04-15T09:03:29;93091.78;;;22.38;28.92
33151;BME280;19508;42.578;23.416;2023-04-15T09:05:56;93083.97;;;23.17;27.70
33151;BME280;19508;42.578;23.416;2023-04-15T09:08:21;93080.53;;;22.67;28.23
33151;BME280;19508;42.578;23.416;2023-04-15T09:10:47;93074.38;;;23.11;29.92
33151;BME280;19508;42.578;23.416;2023-04-15T09:13:12;93074.44;;;22.09;29.63
33151;BME280;19508;42.578;23.416;2023-04-15T09:15:38;93068.59;;;22.88;28.57
33151;BME280;19508;42.578;23.416;2023-04-15T09:18:04;93077.59;;;23.28;28.07
33151;BME280;19508;42.578;23.416;2023-04-15T09:20:37;93075.25;;;23.43;28.00
33151;BME280;19508;42.578;23.416;2023-04-15T09:23:10;93080.56;;;23.07;26.56
33151;BME280;19508;42.578;23.416;2023-04-15T09:25:38;93084.97;;;22.72;29.51
33151;BME280;19508;42.578;23.416;2023-04-15T09:28:04;93091.28;;;22.85;27.59
33151;BME280;19508;42.578;23.416;2023-04-15T09:30:29;93087.72;;;22.72;25.75
33151;BME280;19508;42.578;23.416;2023-04-15T09:32:57;93095.91;;;22.19;24.68
33151;BME280;19508;42.578;23.416;2023-04-15T09:35:23;93092.75;;;21.27;26.12
33151;BME280;19508;42.578;23.416;2023-04-15T09:37:50;93083.53;;;22.01;25.71
33151;BME280;19508;42.578;23.416;2023-04-15T09:43:01;93075.84;;;24.27;22.65
33151;BME280;19508;42.578;23.416;2023-04-15T09:45:27;93077.78;;;22.67;22.80
33151;BME280;19508;42.578;23.416;2023-04-15T09:47:56;93087.00;;;23.71;22.32
33151;BME280;19508;42.578;23.416;2023-04-15T09:50:26;93084.34;;;24.89;23.64
33151;BME280;19508;42.578;23.416;2023-04-15T09:52:52;93078.94;;;24.76;21.46
33151;BME280;19508;42.578;23.416;2023-04-15T09:55:17;93074.16;;;24.07;21.63
33151;BME280;19508;42.578;23.416;2023-04-15T09:57:45;93077.06;;;24.30;22.15
33151;BME280;19508;42.578;23.416;2023-04-15T10:00:11;93071.72;;;25.65;20.31
33151;BME280;19508;42.578;23.416;2023-04-15T10:02:41;93051.16;;;26.54;20.38
33151;BME280;19508;42.578;23.416;2023-04-15T10:05:10;93040.75;;;27.31;19.78
33151;BME280;19508;42.578;23.416;2023-04-15T10:07:37;93046.78;;;26.80;19.87
33151;BME280;19508;42.578;23.416;2023-04-15T10:10:02;93064.59;;;25.22;20.69
33151;BME280;19508;42.578;23.416;2023-04-15T10:12:30;93068.47;;;24.82;21.77
33151;BME280;19508;42.578;23.416;2023-04-15T10:14:58;93055.50;;;24.47;22.03
33151;BME280;19508;42.578;23.416;2023-04-15T10:17:29;93059.88;;;24.17;22.46
33151;BME280;19508;42.578;23.416;2023-04-15T10:20:00;93055.88;;;24.46;22.01
33151;BME280;19508;42.578;23.416;2023-04-15T10:22:26;93056.88;;;23.75;21.89
33151;BME280;19508;42.578;23.416;2023-04-15T10:24:53;93056.25;;;23.66;22.01
33151;BME280;19508;42.578;23.416;2023-04-15T10:27:20;93045.59;;;23.20;25.00
33151;BME280;19508;42.578;23.416;2023-04-15T10:29:48;93045.84;;;24.92;21.81
33151;BME280;19508;42.578;23.416;2023-04-15T10:32:14;93033.63;;;25.94;19.18
33151;BME280;19508;42.578;23.416;2023-04-15T10:34:41;93040.03;;;25.55;19.71
33151;BME280;19508;42.578;23.416;2023-04-15T10:37:08;93038.66;;;27.20;18.75
33151;BME280;19508;42.578;23.416;2023-04-15T10:42:09;93028.28;;;27.44;18.50
33151;BME280;19508;42.578;23.416;2023-04-15T10:44:41;93027.91;;;27.12;17.07
33151;BME280;19508;42.578;23.416;2023-04-15T10:47:15;93031.94;;;26.35;18.48
33151;BME280;19508;42.578;23.416;2023-04-15T10:49:51;93039.50;;;25.69;19.94
33151;BME280;19508;42.578;23.416;2023-04-15T10:52:22;93034.88;;;25.54;19.80
33151;BME280;19508;42.578;23.416;2023-04-15T10:54:47;93039.44;;;24.69;20.41
33151;BME280;19508;42.578;23.416;2023-04-15T10:57:15;93033.09;;;24.14;19.92
33151;BME280;19508;42.578;23.416;2023-04-15T11:00:01;93037.28;;;24.59;21.45
33151;BME280;19508;42.578;23.416;2023-04-15T11:02:38;93041.66;;;24.44;20.32
33151;BME280;19508;42.578;23.416;2023-04-15T11:05:05;93043.91;;;23.75;19.13
33151;BME280;19508;42.578;23.416;2023-04-15T11:13:02;93050.31;;;23.95;18.74
33151;BME280;19508;42.578;23.416;2023-04-15T11:15:35;93047.50;;;24.27;18.99
33151;BME280;19508;42.578;23.416;2023-04-15T11:18:11;93050.56;;;23.74;19.42
33151;BME280;19508;42.578;23.416;2023-04-15T11:20:38;93037.81;;;23.82;18.52
33151;BME280;19508;42.578;23.416;2023-04-15T11:23:04;93041.69;;;22.65;20.91
33151;BME280;19508;42.578;23.416;2023-04-15T11:25:32;93038.75;;;22.46;19.27
33151;BME280;19508;42.578;23.416;2023-04-15T11:27:59;93037.25;;;24.24;19.73
33151;BME280;19508;42.578;23.416;2023-04-15T11:30:26;93033.09;;;24.84;18.24
33151;BME280;19508;42.578;23.416;2023-04-15T11:32:54;93022.44;;;25.41;18.17
33151;BME280;19508;42.578;23.416;2023-04-15T11:35:21;93025.13;;;26.29;19.48
33151;BME280;19508;42.578;23.416;2023-04-15T11:37:48;93034.81;;;26.68;19.21
33151;BME280;19508;42.578;23.416;2023-04-15T11:40:21;93033.53;;;26.62;18.00
33151;BME280;19508;42.578;23.416;2023-04-15T11:43:06;93032.84;;;26.69;17.71
33151;BME280;19508;42.578;23.416;2023-04-15T11:45:32;93026.94;;;26.18;18.48
33151;BME280;19508;42.578;23.416;2023-04-15T11:48:25;93032.31;;;25.84;19.37
33151;BME280;19508;42.578;23.416;2023-04-15T11:51:04;93026.72;;;26.53;19.24
33151;BME280;19508;42.578;23.416;2023-04-15T11:53:45;93033.63;;;25.09;20.13
33151;BME280;19508;42.578;23.416;2023-04-15T11:56:18;93030.94;;;25.32;20.21
33151;BME280;19508;42.578;23.416;2023-04-15T11:58:44;93032.44;;;24.71;21.34
33151;BME280;19508;42.578;23.416;2023-04-15T12:01:10;93022.56;;;23.69;22.13
33151;BME280;19508;42.578;23.416;2023-04-15T12:03:41;93022.88;;;22.92;21.55
33151;BME280;19508;42.578;23.416;2023-04-15T12:06:21;93026.38;;;23.64;21.62
33151;BME280;19508;42.578;23.416;2023-04-15T12:09:00;93027.56;;;22.91;21.92
33151;BME280;19508;42.578;23.416;2023-04-15T12:13:53;93032.91;;;23.44;21.14
33151;BME280;19508;42.578;23.416;2023-04-15T12:16:19;93038.00;;;22.73;22.39
33151;BME280;19508;42.578;23.416;2023-04-15T12:18:46;93018.16;;;22.92;21.70
33151;BME280;19508;42.578;23.416;2023-04-15T12:21:13;93024.22;;;23.42;21.44
33151;BME280;19508;42.578;23.416;2023-04-15T12:23:52;93024.97;;;23.70;21.38
33151;BME280;19508;42.578;23.416;2023-04-15T12:26:25;93022.09;;;24.84;19.95
33151;BME280;19508;42.578;23.416;2023-04-15T12:29:11;93030.50;;;25.11;20.16
33151;BME280;19508;42.578;23.416;2023-04-15T12:31:46;93016.16;;;26.09;18.81
33151;BME280;19508;42.578;23.416;2023-04-15T12:34:13;93036.84;;;26.45;18.29
33151;BME280;19508;42.578;23.416;2023-04-15T12:36:38;93023.34;;;26.40;18.56
33151;BME280;19508;42.578;23.416;2023-04-15T12:39:04;93025.91;;;26.52;18.68
33151;BME280;19508;42.578;23.416;2023-04-15T12:41:31;93032.34;;;25.87;19.11
33151;BME280;19508;42.578;23.416;2023-04-15T12:43:57;93030.66;;;24.79;19.79
33151;BME280;19508;42.578;23.416;2023-04-15T12:46:22;93040.16;;;24.31;21.03
33151;BME280;19508;42.578;23.416;2023-04-15T12:48:49;93048.63;;;25.12;20.18
33151;BME280;19508;42.578;23.416;2023-04-15T12:51:15;93031.13;;;25.85;18.83
33151;BME280;19508;42.578;23.416;2023-04-15T12:53:40;93029.94;;;26.58;18.67
33151;BME280;19508;42.578;23.416;2023-04-15T12:56:06;93033.41;;;26.29;19.18
33151;BME280;19508;42.578;23.416;2023-04-15T12:58:32;93032.38;;;25.26;19.00
33151;BME280;19508;42.578;23.416;2023-04-15T13:00:57;93024.28;;;25.33;19.96
33151;BME280;19508;42.578;23.416;2023-04-15T13:03:23;93029.06;;;26.81;18.08
33151;BME280;19508;42.578;23.416;2023-04-15T13:05:48;93026.16;;;27.00;17.58